createdAt,value
2022-07-31T00:02:11.706Z,24.50
2022-07-31T00:04:41.189Z,24.50
2022-07-31T00:07:10.783Z,24.20
2022-07-31T00:09:53.154Z,24.20
2022-07-31T00:12:25.230Z,24.20
2022-07-31T00:14:54.836Z,24.20
2022-07-31T00:17:24.308Z,24.00
2022-07-31T00:19:53.908Z,24.20
2022-07-31T00:22:24.486Z,23.90
2022-07-31T00:24:54.068Z,23.90
2022-07-31T00:27:25.307Z,23.80
2022-07-31T00:29:54.889Z,23.90
2022-07-31T00:32:24.386Z,23.80
2022-07-31T00:34:53.997Z,23.70
2022-07-31T00:37:23.501Z,23.70
2022-07-31T00:39:54.778Z,23.40
2022-07-31T00:42:27.039Z,23.30
2022-07-31T00:44:56.720Z,23.60
2022-07-31T00:47:29.075Z,23.70
2022-07-31T00:49:59.580Z,23.40
2022-07-31T00:52:29.010Z,23.50
2022-07-31T00:54:59.129Z,23.50
2022-07-31T00:57:30.361Z,23.80
2022-07-31T00:59:59.918Z,23.90
2022-07-31T01:02:29.978Z,23.60
2022-07-31T01:04:59.550Z,23.20
2022-07-31T01:07:28.992Z,23.20
2022-07-31T01:09:58.823Z,23.20
2022-07-31T01:12:37.814Z,23.00
2022-07-31T01:15:14.388Z,23.00
2022-07-31T01:17:45.736Z,23.10
2022-07-31T01:20:16.366Z,23.00
2022-07-31T01:23:17.375Z,23.20
2022-07-31T01:26:19.482Z,23.20
2022-07-31T01:29:15.775Z,23.30
2022-07-31T01:31:49.780Z,23.40
2022-07-31T01:34:27.426Z,23.50
2022-07-31T01:37:05.352Z,23.40
2022-07-31T01:39:37.450Z,23.50
2022-07-31T01:42:09.940Z,23.50
2022-07-31T01:44:45.610Z,23.30
2022-07-31T01:47:19.015Z,23.40
2022-07-31T01:49:50.492Z,23.40
2022-07-31T01:52:23.707Z,23.40
2022-07-31T01:54:54.903Z,23.40
2022-07-31T01:57:26.545Z,23.60
2022-07-31T02:00:03.513Z,23.80
2022-07-31T02:02:51.351Z,23.60
2022-07-31T02:05:25.632Z,23.60
2022-07-31T02:07:56.535Z,23.60
2022-07-31T02:10:30.106Z,23.50
2022-07-31T02:13:00.575Z,23.50
2022-07-31T02:15:33.866Z,23.30
2022-07-31T02:18:04.291Z,23.10
2022-07-31T02:20:38.054Z,23.00
2022-07-31T02:23:08.107Z,23.20
2022-07-31T02:25:38.757Z,23.40
2022-07-31T02:28:12.557Z,23.40
2022-07-31T02:30:46.091Z,23.10
2022-07-31T02:33:24.042Z,22.90
2022-07-31T02:35:56.438Z,22.80
2022-07-31T02:38:28.639Z,22.60
2022-07-31T02:41:04.159Z,22.50
2022-07-31T02:43:35.313Z,22.50
2022-07-31T02:46:21.788Z,22.60
2022-07-31T02:48:54.369Z,22.60
2022-07-31T02:51:26.159Z,22.50
2022-07-31T02:53:56.446Z,22.30
2022-07-31T02:56:30.030Z,22.20
2022-07-31T02:58:59.640Z,22.60
2022-07-31T03:01:38.940Z,22.60
2022-07-31T03:04:09.250Z,22.60
2022-07-31T03:06:38.849Z,22.50
2022-07-31T03:09:08.409Z,22.60
2022-07-31T03:11:38.637Z,22.60
2022-07-31T03:14:10.786Z,22.50
2022-07-31T03:16:43.953Z,22.40
2022-07-31T03:19:15.251Z,22.40
2022-07-31T03:21:45.341Z,22.40
2022-07-31T03:24:15.345Z,22.70
2022-07-31T03:26:45.357Z,22.80
2022-07-31T03:29:42.603Z,22.80
2022-07-31T03:32:07.115Z,23.00
2022-07-31T03:34:37.907Z,22.60
2022-07-31T03:37:09.037Z,22.10
2022-07-31T03:39:39.009Z,22.10
2022-07-31T03:42:18.866Z,22.10
2022-07-31T03:44:51.053Z,22.10
2022-07-31T03:47:22.236Z,22.10
2022-07-31T03:49:52.119Z,22.20
2022-07-31T03:52:22.317Z,22.40
2022-07-31T03:54:52.105Z,22.50
2022-07-31T03:57:26.986Z,22.60
2022-07-31T03:59:59.361Z,22.60
2022-07-31T04:02:32.600Z,22.60
2022-07-31T04:05:24.322Z,22.60
2022-07-31T04:07:53.987Z,22.60
2022-07-31T04:10:24.600Z,22.60
2022-07-31T04:12:54.327Z,22.60
2022-07-31T04:15:23.877Z,22.70
2022-07-31T04:17:56.015Z,22.40
2022-07-31T04:20:32.087Z,22.20
2022-07-31T04:23:01.698Z,22.00
2022-07-31T04:26:00.961Z,21.90
2022-07-31T04:28:56.610Z,21.90
2022-07-31T04:31:26.851Z,21.80
2022-07-31T04:33:58.717Z,21.80
2022-07-31T04:36:30.330Z,21.70
2022-07-31T04:39:03.073Z,21.90
2022-07-31T04:41:33.193Z,22.00
2022-07-31T04:44:03.547Z,22.00
2022-07-31T04:46:47.382Z,22.10
2022-07-31T04:49:19.001Z,22.10
2022-07-31T04:51:49.062Z,22.10
2022-07-31T04:54:18.671Z,22.20
2022-07-31T04:56:48.901Z,22.30
2022-07-31T04:59:20.965Z,22.40
2022-07-31T05:01:51.136Z,22.30
2022-07-31T05:04:26.871Z,21.90
2022-07-31T05:06:56.529Z,21.80
2022-07-31T05:09:30.536Z,22.10
2022-07-31T05:12:03.455Z,22.30
2022-07-31T05:14:33.586Z,22.30
2022-07-31T05:17:03.087Z,22.40
2022-07-31T05:19:52.041Z,22.60
2022-07-31T05:22:46.837Z,22.70
2022-07-31T05:25:39.068Z,22.80
2022-07-31T05:28:09.914Z,22.80
2022-07-31T05:30:42.041Z,22.90
2022-07-31T05:33:11.966Z,22.80
2022-07-31T05:35:45.198Z,23.00
2022-07-31T05:38:14.782Z,23.00
2022-07-31T05:41:14.005Z,23.20
2022-07-31T05:44:19.203Z,23.20
2022-07-31T05:49:20.125Z,23.30
2022-07-31T05:51:55.748Z,23.30
2022-07-31T05:54:25.363Z,23.50
2022-07-31T05:57:13.200Z,23.60
2022-07-31T06:00:03.996Z,23.80
2022-07-31T06:02:41.243Z,23.80
2022-07-31T06:05:34.263Z,23.90
2022-07-31T06:08:05.463Z,23.90
2022-07-31T06:10:43.152Z,24.00
2022-07-31T06:13:13.323Z,24.20
2022-07-31T06:15:49.222Z,24.30
2022-07-31T06:18:20.324Z,24.20
2022-07-31T06:20:50.419Z,24.30
2022-07-31T06:23:27.951Z,24.20
2022-07-31T06:26:17.949Z,24.40
2022-07-31T06:28:49.522Z,24.50
2022-07-31T06:31:21.711Z,24.40
2022-07-31T06:33:53.839Z,24.50
2022-07-31T06:36:27.443Z,24.80
2022-07-31T06:39:02.954Z,24.90
2022-07-31T06:41:52.806Z,24.90
2022-07-31T06:44:33.850Z,24.90
2022-07-31T06:47:23.529Z,25.10
2022-07-31T06:49:57.061Z,25.00
2022-07-31T06:52:31.592Z,25.40
2022-07-31T06:55:03.836Z,25.40
2022-07-31T06:57:33.479Z,25.40
2022-07-31T07:00:07.289Z,25.60
2022-07-31T07:02:50.081Z,25.60
2022-07-31T07:05:21.915Z,25.70
2022-07-31T07:07:55.069Z,25.80
2022-07-31T07:10:26.414Z,26.00
2022-07-31T07:13:01.870Z,26.10
2022-07-31T07:15:38.353Z,26.10
2022-07-31T07:18:08.847Z,26.20
2022-07-31T07:20:44.717Z,26.20
2022-07-31T07:23:14.790Z,26.10
2022-07-31T07:26:00.355Z,26.20
2022-07-31T07:28:31.094Z,26.30
2022-07-31T07:31:05.285Z,26.50
2022-07-31T07:33:40.108Z,24.80
2022-07-31T07:36:22.686Z,26.40
2022-07-31T07:39:20.202Z,26.50
2022-07-31T07:41:51.450Z,26.50
2022-07-31T07:44:21.133Z,26.40
2022-07-31T07:46:50.936Z,26.60
2022-07-31T07:49:22.149Z,26.70
2022-07-31T07:52:03.148Z,26.60
2022-07-31T07:54:43.604Z,26.70
2022-07-31T07:57:19.215Z,26.70
2022-07-31T08:00:18.206Z,26.80
2022-07-31T08:03:46.788Z,27.10
2022-07-31T08:05:47.132Z,27.10
2022-07-31T08:08:16.816Z,27.10
2022-07-31T08:10:49.526Z,27.30
2022-07-31T08:13:28.683Z,27.30
2022-07-31T08:16:24.535Z,27.10
2022-07-31T08:18:58.028Z,26.90
2022-07-31T08:21:28.962Z,27.30
2022-07-31T08:23:58.909Z,27.60
2022-07-31T08:26:48.542Z,27.70
2022-07-31T08:29:27.314Z,27.70
2022-07-31T08:32:07.508Z,27.70
2022-07-31T08:34:55.786Z,27.50
2022-07-31T08:37:52.534Z,27.40
2022-07-31T08:40:15.257Z,27.40
2022-07-31T08:42:47.448Z,27.80
2022-07-31T08:45:19.170Z,27.90
2022-07-31T08:48:01.120Z,28.00
2022-07-31T08:50:36.526Z,28.10
2022-07-31T08:53:10.199Z,27.90
2022-07-31T08:55:55.502Z,27.60
2022-07-31T08:58:28.244Z,27.80
2022-07-31T09:00:59.813Z,27.80
2022-07-31T09:03:29.651Z,28.10
2022-07-31T09:06:02.264Z,28.30
2022-07-31T09:08:35.113Z,28.50
2022-07-31T09:11:08.349Z,28.60
2022-07-31T09:14:06.002Z,28.70
2022-07-31T09:16:50.932Z,28.50
2022-07-31T09:19:52.328Z,28.70
2022-07-31T09:22:29.081Z,28.60
2022-07-31T09:25:16.422Z,28.40
2022-07-31T09:27:46.479Z,28.70
2022-07-31T09:30:17.228Z,28.80
2022-07-31T09:33:20.285Z,28.80
2022-07-31T09:36:16.105Z,29.20
2022-07-31T09:38:51.773Z,29.60
2022-07-31T09:41:58.155Z,29.60
2022-07-31T09:44:51.166Z,29.60
2022-07-31T09:47:27.165Z,29.20
2022-07-31T09:50:01.029Z,29.40
2022-07-31T09:52:33.086Z,29.70
2022-07-31T09:55:16.103Z,29.80
2022-07-31T09:57:55.803Z,29.70
2022-07-31T10:00:27.239Z,29.40
2022-07-31T10:02:59.290Z,29.30
2022-07-31T10:05:32.216Z,29.70
2022-07-31T10:08:04.570Z,29.60
2022-07-31T10:10:48.060Z,29.70
2022-07-31T10:13:32.600Z,29.70
2022-07-31T10:16:03.530Z,30.00
2022-07-31T10:19:01.599Z,30.30
2022-07-31T10:22:06.599Z,30.40
2022-07-31T10:24:48.408Z,30.40
2022-07-31T10:27:19.450Z,30.60
2022-07-31T10:29:56.364Z,30.70
2022-07-31T10:32:27.610Z,30.60
2022-07-31T10:35:29.770Z,30.40
2022-07-31T10:38:35.389Z,30.70
2022-07-31T10:41:32.653Z,31.00
2022-07-31T10:44:09.974Z,30.80
2022-07-31T10:47:15.015Z,31.00
2022-07-31T10:50:22.891Z,31.40
2022-07-31T10:53:12.077Z,31.30
2022-07-31T10:56:11.107Z,30.70
2022-07-31T10:59:14.175Z,30.60
2022-07-31T11:01:53.619Z,31.00
2022-07-31T11:04:41.577Z,31.00
2022-07-31T11:07:33.543Z,30.80
2022-07-31T11:10:17.931Z,31.20
2022-07-31T11:13:04.766Z,31.20
2022-07-31T11:15:54.110Z,31.30
2022-07-31T11:18:59.599Z,31.20
2022-07-31T11:21:39.567Z,31.00
2022-07-31T11:24:17.642Z,31.50
2022-07-31T11:26:54.975Z,31.50
2022-07-31T11:29:59.104Z,31.40
2022-07-31T11:32:26.168Z,31.40
2022-07-31T11:34:57.540Z,31.70
2022-07-31T11:37:46.646Z,31.80
2022-07-31T11:40:22.324Z,31.80
2022-07-31T11:43:10.356Z,31.70
2022-07-31T11:45:50.210Z,31.70
2022-07-31T11:48:20.963Z,31.70
2022-07-31T11:50:51.865Z,31.80
2022-07-31T11:53:22.359Z,31.90
2022-07-31T11:55:53.498Z,31.80
2022-07-31T11:58:24.798Z,31.90
2022-07-31T12:00:57.902Z,31.90
2022-07-31T12:03:31.589Z,32.30
2022-07-31T12:06:01.633Z,32.40
2022-07-31T12:08:32.179Z,32.50
2022-07-31T12:11:03.119Z,32.40
2022-07-31T12:13:33.970Z,32.90
2022-07-31T12:16:06.928Z,33.00
2022-07-31T12:18:49.281Z,33.50
2022-07-31T12:21:19.762Z,33.10
2022-07-31T12:23:51.254Z,32.70
2022-07-31T12:26:25.281Z,32.60
2022-07-31T12:29:02.543Z,33.20
2022-07-31T12:31:46.543Z,33.90
2022-07-31T12:34:27.019Z,33.30
2022-07-31T12:37:00.988Z,33.40
2022-07-31T12:39:47.526Z,34.40
2022-07-31T12:42:30.943Z,35.10
2022-07-31T12:45:18.555Z,34.60
2022-07-31T12:47:56.101Z,33.60
2022-07-31T12:50:27.782Z,33.90
2022-07-31T12:53:02.008Z,34.00
2022-07-31T12:55:34.056Z,35.00
2022-07-31T12:58:03.644Z,35.10
2022-07-31T13:00:38.123Z,34.20
2022-07-31T13:03:11.542Z,34.70
2022-07-31T13:05:41.270Z,35.30
2022-07-31T13:08:10.989Z,35.30
2022-07-31T13:10:40.748Z,34.60
2022-07-31T13:13:10.439Z,35.10
2022-07-31T13:15:41.050Z,35.00
2022-07-31T13:18:12.246Z,35.10
2022-07-31T13:20:44.122Z,35.30
2022-07-31T13:23:14.012Z,35.10
2022-07-31T13:25:43.680Z,35.00
2022-07-31T13:28:13.303Z,35.70
2022-07-31T13:30:43.283Z,36.10
2022-07-31T13:33:14.478Z,36.70
2022-07-31T13:35:44.148Z,36.70
2022-07-31T13:38:15.149Z,36.70
2022-07-31T13:41:02.043Z,36.90
2022-07-31T13:43:31.810Z,36.80
2022-07-31T13:46:01.370Z,36.50
2022-07-31T13:48:35.481Z,36.00
2022-07-31T13:51:05.226Z,36.50
2022-07-31T13:53:34.938Z,36.50
2022-07-31T13:56:05.228Z,35.90
2022-07-31T13:58:35.009Z,36.30
2022-07-31T14:01:05.180Z,36.80
2022-07-31T14:03:36.480Z,37.20
2022-07-31T14:06:06.283Z,37.50
2022-07-31T14:08:49.776Z,37.40
2022-07-31T14:11:20.138Z,36.90
2022-07-31T14:13:49.707Z,36.80
2022-07-31T14:16:19.357Z,36.90
2022-07-31T14:18:50.521Z,37.10
2022-07-31T14:21:20.171Z,35.70
2022-07-31T14:23:49.707Z,36.60
2022-07-31T14:26:19.463Z,36.80
2022-07-31T14:28:49.894Z,37.30
2022-07-31T14:31:19.695Z,38.30
2022-07-31T14:33:50.759Z,37.80
2022-07-31T14:36:20.364Z,37.40
2022-07-31T14:38:49.909Z,37.00
2022-07-31T14:41:19.625Z,37.80
2022-07-31T14:43:50.615Z,37.60
2022-07-31T14:46:20.241Z,37.90
2022-07-31T14:48:51.375Z,36.50
2022-07-31T14:51:21.440Z,35.60
2022-07-31T14:53:52.762Z,37.20
2022-07-31T14:56:45.067Z,37.30
2022-07-31T14:59:12.154Z,37.40
2022-07-31T15:01:42.002Z,37.40
2022-07-31T15:04:13.362Z,37.50
2022-07-31T15:06:59.030Z,37.90
2022-07-31T15:09:32.791Z,37.10
2022-07-31T15:12:02.288Z,38.10
2022-07-31T15:14:32.314Z,36.50
2022-07-31T15:17:02.091Z,36.50
2022-07-31T15:19:33.240Z,37.50
2022-07-31T15:22:10.057Z,38.30
2022-07-31T15:24:49.114Z,38.50
2022-07-31T15:27:21.238Z,38.30
2022-07-31T15:30:02.023Z,38.60
2022-07-31T15:32:36.235Z,38.50
2022-07-31T15:35:09.030Z,37.20
2022-07-31T15:37:39.730Z,37.30
2022-07-31T15:40:11.642Z,37.20
2022-07-31T15:42:43.447Z,36.90
2022-07-31T15:45:14.200Z,36.80
2022-07-31T15:47:45.053Z,36.70
2022-07-31T15:50:19.116Z,36.60
2022-07-31T15:52:49.246Z,36.60
2022-07-31T15:55:19.163Z,37.10
2022-07-31T15:57:48.742Z,36.80
2022-07-31T16:00:19.122Z,37.00
2022-07-31T16:02:48.769Z,37.30
2022-07-31T16:05:36.291Z,36.80
2022-07-31T16:08:32.330Z,36.80
2022-07-31T16:10:57.739Z,37.40
2022-07-31T16:13:27.590Z,38.10
2022-07-31T16:15:57.319Z,38.10
2022-07-31T16:18:26.859Z,38.20
2022-07-31T16:20:58.511Z,37.80
2022-07-31T16:23:28.465Z,37.80
2022-07-31T16:25:58.101Z,36.90
2022-07-31T16:28:28.068Z,36.70
2022-07-31T16:30:57.679Z,36.60
2022-07-31T16:33:27.205Z,36.20
2022-07-31T16:35:58.856Z,36.30
2022-07-31T16:38:28.491Z,37.10
2022-07-31T16:40:58.002Z,37.20
2022-07-31T16:43:47.992Z,37.60
2022-07-31T16:46:17.422Z,37.00
2022-07-31T16:48:47.413Z,37.60
2022-07-31T16:51:18.572Z,37.90
2022-07-31T16:54:14.456Z,37.50
2022-07-31T16:56:38.330Z,38.00
2022-07-31T16:59:08.048Z,37.80
2022-07-31T17:01:54.115Z,36.90
2022-07-31T17:04:27.403Z,36.90
2022-07-31T17:06:58.552Z,36.90
2022-07-31T17:09:28.987Z,36.30
2022-07-31T17:11:58.920Z,36.60
2022-07-31T17:14:29.465Z,36.10
2022-07-31T17:16:59.505Z,36.50
2022-07-31T17:19:42.725Z,36.40
2022-07-31T17:22:18.674Z,35.40
2022-07-31T17:24:51.455Z,35.60
2022-07-31T17:27:22.916Z,35.10
2022-07-31T17:29:52.570Z,34.60
2022-07-31T17:32:22.125Z,35.30
2022-07-31T17:34:51.777Z,35.60
2022-07-31T17:37:24.261Z,35.40
2022-07-31T17:39:57.851Z,35.60
2022-07-31T17:42:28.664Z,35.40
2022-07-31T17:44:59.271Z,35.20
2022-07-31T17:47:28.978Z,34.90
2022-07-31T17:49:58.821Z,34.70
2022-07-31T17:52:31.444Z,34.10
2022-07-31T17:55:01.994Z,33.50
2022-07-31T17:57:32.998Z,33.20
2022-07-31T18:00:02.991Z,32.90
2022-07-31T18:02:34.263Z,32.50
2022-07-31T18:05:04.210Z,32.30
2022-07-31T18:07:36.001Z,32.20
2022-07-31T18:10:09.471Z,32.10
2022-07-31T18:12:56.782Z,32.00
2022-07-31T18:15:35.877Z,31.90
2022-07-31T18:18:05.994Z,31.70
2022-07-31T18:20:36.063Z,31.70
2022-07-31T18:23:10.158Z,31.50
2022-07-31T18:25:40.131Z,31.40
2022-07-31T18:28:09.832Z,31.20
2022-07-31T18:30:41.512Z,31.10
2022-07-31T18:33:13.100Z,31.00
2022-07-31T18:35:43.090Z,31.00
2022-07-31T18:38:14.543Z,30.90
2022-07-31T18:40:45.059Z,30.70
2022-07-31T18:43:14.930Z,30.70
2022-07-31T18:45:44.823Z,30.70
2022-07-31T18:48:14.483Z,30.60
2022-07-31T18:51:01.573Z,30.60
2022-07-31T18:53:35.523Z,30.40
2022-07-31T18:56:05.510Z,30.40
2022-07-31T18:58:35.011Z,30.40
2022-07-31T19:01:04.942Z,30.50
2022-07-31T19:03:34.538Z,30.40
2022-07-31T19:06:04.785Z,30.30
2022-07-31T19:08:35.898Z,30.20
2022-07-31T19:11:05.690Z,30.20
2022-07-31T19:13:35.436Z,30.20
2022-07-31T19:16:05.308Z,30.20
2022-07-31T19:18:36.376Z,30.10
2022-07-31T19:21:18.035Z,29.80
2022-07-31T19:23:57.772Z,30.00
2022-07-31T19:26:27.636Z,30.00
2022-07-31T19:28:57.328Z,29.90
2022-07-31T19:31:27.093Z,30.00
2022-07-31T19:33:56.818Z,30.10
2022-07-31T19:36:26.525Z,29.90
2022-07-31T19:38:57.650Z,30.00
2022-07-31T19:41:27.380Z,29.80
2022-07-31T19:43:58.529Z,31.20
2022-07-31T19:46:28.289Z,29.90
2022-07-31T19:49:00.519Z,29.50
2022-07-31T19:51:31.689Z,29.40
2022-07-31T19:54:02.961Z,29.60
2022-07-31T19:56:33.825Z,29.40
2022-07-31T19:59:04.357Z,29.40
2022-07-31T20:01:34.117Z,29.30
2022-07-31T20:04:03.798Z,29.20
2022-07-31T20:06:33.597Z,29.10
2022-07-31T20:09:05.990Z,29.10
2022-07-31T20:11:35.626Z,28.90
2022-07-31T20:14:05.925Z,28.80
2022-07-31T20:16:35.827Z,28.20
2022-07-31T20:19:05.477Z,28.20
2022-07-31T20:21:35.507Z,28.60
2022-07-31T20:24:08.605Z,28.60
2022-07-31T20:26:38.666Z,28.80
2022-07-31T20:29:08.248Z,28.60
2022-07-31T20:31:37.966Z,28.70
2022-07-31T20:34:07.617Z,28.60
2022-07-31T20:36:37.324Z,28.60
2022-07-31T20:39:08.710Z,28.50
2022-07-31T20:41:38.756Z,28.30
2022-07-31T20:44:08.666Z,28.20
2022-07-31T20:46:38.407Z,28.00
2022-07-31T20:49:07.985Z,28.20
2022-07-31T20:51:52.586Z,28.20
2022-07-31T20:54:34.133Z,28.20
2022-07-31T20:57:04.658Z,28.20
2022-07-31T20:59:34.127Z,28.20
2022-07-31T21:02:04.216Z,28.20
2022-07-31T21:04:34.289Z,28.00
2022-07-31T21:07:03.880Z,28.10
2022-07-31T21:09:35.150Z,28.00
2022-07-31T21:12:05.169Z,28.50
2022-07-31T21:14:34.990Z,27.90
2022-07-31T21:17:04.639Z,27.70
2022-07-31T21:19:34.340Z,27.70
2022-07-31T21:22:04.107Z,27.70
2022-07-31T21:24:36.313Z,27.70
2022-07-31T21:27:10.558Z,27.60
2022-07-31T21:29:40.846Z,27.50
2022-07-31T21:32:11.608Z,27.30
2022-07-31T21:34:41.891Z,27.30
2022-07-31T21:37:16.360Z,27.40
2022-07-31T21:39:48.169Z,27.30
2022-07-31T21:42:18.448Z,27.30
2022-07-31T21:44:48.673Z,27.30
2022-07-31T21:47:19.788Z,27.30
2022-07-31T21:49:54.115Z,27.30
2022-07-31T21:52:30.385Z,27.30
2022-07-31T21:55:04.282Z,27.30
2022-07-31T21:57:58.744Z,27.10
2022-07-31T22:00:26.336Z,27.10
2022-07-31T22:02:58.836Z,27.10
2022-07-31T22:05:56.881Z,27.20
2022-07-31T22:08:26.551Z,27.10
2022-07-31T22:10:57.589Z,27.10
2022-07-31T22:13:27.244Z,27.00
2022-07-31T22:16:00.028Z,27.00
2022-07-31T22:18:34.926Z,26.90
2022-07-31T22:21:06.983Z,26.90
2022-07-31T22:23:37.351Z,26.90
2022-07-31T22:26:08.831Z,26.80
2022-07-31T22:28:39.394Z,26.80
2022-07-31T22:31:10.717Z,26.60
2022-07-31T22:33:40.701Z,26.60
2022-07-31T22:36:11.027Z,26.40
2022-07-31T22:38:41.318Z,26.50
2022-07-31T22:41:13.872Z,26.50
2022-07-31T22:44:12.426Z,26.50
2022-07-31T22:46:34.437Z,26.60
2022-07-31T22:49:07.359Z,26.50
2022-07-31T22:51:38.687Z,26.40
2022-07-31T22:54:08.841Z,26.30
2022-07-31T22:56:39.835Z,26.50
2022-07-31T22:59:09.519Z,26.50
2022-07-31T23:01:39.009Z,26.50
2022-07-31T23:04:08.609Z,26.40
2022-07-31T23:06:38.237Z,26.40
2022-07-31T23:09:07.849Z,26.40
2022-07-31T23:11:38.806Z,26.30
2022-07-31T23:14:08.650Z,26.30
2022-07-31T23:16:38.157Z,26.30
2022-07-31T23:19:08.084Z,26.30
2022-07-31T23:21:37.757Z,26.30
2022-07-31T23:24:07.548Z,26.20
2022-07-31T23:26:37.299Z,26.10
2022-07-31T23:29:09.214Z,25.90
2022-07-31T23:31:39.412Z,25.90
2022-07-31T23:34:09.989Z,26.10
2022-07-31T23:36:39.689Z,25.90
2022-07-31T23:39:09.359Z,25.80
2022-07-31T23:41:55.922Z,25.70
2022-07-31T23:44:27.629Z,25.90
2022-07-31T23:46:58.069Z,26.00
2022-07-31T23:49:27.667Z,26.00
2022-07-31T23:51:57.959Z,26.00
2022-07-31T23:54:27.489Z,25.90
2022-07-31T23:56:57.089Z,25.80
2022-07-31T23:59:28.126Z,26.10
